Météo Nord-Pas-de-Calais   La météo au plus près de chez vous

Station météorologique

Observations météo à Bernay (27056)

27056003 166 m Dernier relevé à 17:24
26.1°C
Humidité 39 % Vent 11.2 km/h

Journée consultée

Dimanche 6 Septembre 2026

Synthèse de la journée

Périodes de référence en UTC

Température maximale

27.4°C

à 16:42

06h 06h

Température minimale

10.2°C

à 07:24

18h 18h

Rafale maximale

25 km/h

à 16:30

00h 00h

Précipitations

0 mm

Cumul quotidien

06h 06h

Ensoleillement

4h 12 mins

Durée quotidienne

00h 00h

Graphiques de la journée

Heure locale Réduire

Données détaillées

Relevés météo

Pas de 6 minutes Afficher les relevés infra-horaires
Relevés météo détaillés à Bernay pour le Dimanche 6 Septembre 2026
Heure Température °C Point de rosée °C Humidité % Vent moyen (raf.), km/h Précipitations mm Ensoleillement min Rayonnement global W/m²
17:24 26.1 °C 11.1 °C 39 % 10 km/h (17 km/h) 0 mm0 mm 0 min 61.6 W/m²
17:18 26.1 °C 11.1 °C 39 % 10 km/h (17 km/h) 0 mm0 mm 0 min 66 W/m²
17:12 26.1 °C 11.1 °C 39 % 12 km/h (19 km/h) 0 mm0 mm 0 min 69 W/m²
17:06 26.2 °C 10.4 °C 37 % 13 km/h (21 km/h) 0 mm0 mm 0 min 68.8 W/m²
17:00 26.2 °C 10.8 °C 38 % 15 km/h (23 km/h) 0 mm0 mm 0 min 72.6 W/m²
16:54 26.4 °C 10.9 °C 38 % 16 km/h (23 km/h) 0 mm0 mm 0 min 81.1 W/m²
16:48 26.7 °C 10.4 °C 36 % 15 km/h (21 km/h) 0 mm0 mm 0 min 109.7 W/m²
16:42 27.4 °C 11.4 °C 37 % 13 km/h (20 km/h) 0 mm0 mm 6 min 184.8 W/m²
16:36 27.1 °C 11.6 °C 38 % 15 km/h (24 km/h) 0 mm0 mm 6 min 213.9 W/m²
16:30 27 °C 10.7 °C 36 % 13 km/h (24 km/h) 0 mm0 mm 6 min 195.9 W/m²
16:24 26.7 °C 11.6 °C 39 % 11 km/h (17 km/h) 0 mm0 mm 5 min 217.7 W/m²
16:18 26 °C 11.4 °C 40 % 14 km/h (24 km/h) 0 mm0 mm 0 min 109.1 W/m²
16:12 26.1 °C 11.4 °C 40 % 14 km/h (24 km/h) 0 mm0 mm 3 min 155.6 W/m²
16:06 25.7 °C 11.1 °C 40 % 13 km/h (20 km/h) 0 mm0 mm 0 min 113.3 W/m²
16:00 25.7 °C 11.5 °C 41 % 15 km/h (24 km/h) 0 mm0 mm 0 min 99.6 W/m²
15:54 25.8 °C 10.8 °C 39 % 17 km/h (24 km/h) 0 mm0 mm 0 min 109.5 W/m²
15:48 26 °C 11.4 °C 40 % 15 km/h (24 km/h) 0 mm0 mm 0 min 149.2 W/m²
15:42 25.7 °C 11.8 °C 42 % 15 km/h (21 km/h) 0 mm0 mm 0 min 130.5 W/m²
15:36 25.6 °C 12.4 °C 44 % 15 km/h (22 km/h) 0 mm0 mm 0 min 146.5 W/m²
15:30 25.4 °C 12.3 °C 44 % 14 km/h (19 km/h) 0 mm0 mm 0 min 157.4 W/m²
15:24 25.4 °C 13.6 °C 48 % 13 km/h (18 km/h) 0 mm0 mm 2 min 169.1 W/m²
15:18 24.8 °C 12.4 °C 46 % 12 km/h (17 km/h) 0 mm0 mm 0 min 131.2 W/m²
15:12 24.3 °C 12.6 °C 48 % 9 km/h (16 km/h) 0 mm0 mm 0 min 101.1 W/m²
15:06 24.2 °C 12.8 °C 49 % 7 km/h (12 km/h) 0 mm0 mm 0 min 90.1 W/m²
15:00 23.9 °C 12.2 °C 48 % 10 km/h (18 km/h) 0 mm0 mm 0 min 65.2 W/m²
14:54 24 °C 12.3 °C 48 % 13 km/h (19 km/h) 0 mm0 mm 0 min 42.4 W/m²
14:48 24 °C 12.3 °C 48 % 12 km/h (18 km/h) 0 mm0 mm 0 min 43.7 W/m²
14:42 23.9 °C 12.2 °C 48 % 10 km/h (14 km/h) 0 mm0 mm 0 min 54.3 W/m²
14:36 23.9 °C 12.5 °C 49 % 10 km/h (14 km/h) 0 mm0 mm 0 min 84 W/m²
14:30 23.7 °C 13 °C 51 % 9 km/h (13 km/h) 0 mm0 mm 0 min 88.4 W/m²
14:24 23.8 °C 12.1 °C 48 % 7 km/h (10 km/h) 0 mm0 mm 0 min 64 W/m²
14:18 23.7 °C 12 °C 48 % 8 km/h (12 km/h) 0 mm0 mm 0 min 65 W/m²
14:12 23.5 °C 11.9 °C 48 % 9 km/h (13 km/h) 0 mm0 mm 0 min 65.3 W/m²
14:06 23.4 °C 11.8 °C 48 % 9 km/h (13 km/h) 0 mm0 mm 0 min 56.6 W/m²
14:00 23.3 °C 12.3 °C 50 % 8 km/h (13 km/h) 0 mm0 mm 0 min 57.7 W/m²
13:54 23.1 °C 12.4 °C 51 % 10 km/h (15 km/h) 0 mm0 mm 0 min 62 W/m²
13:48 22.8 °C 12.4 °C 52 % 10 km/h (15 km/h) 0 mm0 mm 0 min 50.4 W/m²
13:42 22.9 °C 11.9 °C 50 % 11 km/h (17 km/h) 0 mm0 mm 0 min 54 W/m²
13:36 22.9 °C 11.9 °C 50 % 13 km/h (18 km/h) 0 mm0 mm 0 min 63.6 W/m²
13:30 22.9 °C 11.9 °C 50 % 14 km/h (19 km/h) 0 mm0 mm 0 min 69 W/m²
13:24 23 °C 11.7 °C 49 % 15 km/h (22 km/h) 0 mm0 mm 0 min 87.7 W/m²
13:18 23.2 °C 11.9 °C 49 % 16 km/h (23 km/h) 0 mm0 mm 0 min 118.7 W/m²
13:12 23.1 °C 12.1 °C 50 % 15 km/h (22 km/h) 0 mm0 mm 0 min 119.3 W/m²
13:06 23 °C 11.7 °C 49 % 16 km/h (23 km/h) 0 mm0 mm 0 min 130.8 W/m²
13:00 22.7 °C 11.4 °C 49 % 15 km/h (23 km/h) 0 mm0 mm 0 min 135.3 W/m²
12:54 23 °C 12 °C 50 % 15 km/h (22 km/h) 0 mm0 mm 3 min 196.2 W/m²
12:48 23 °C 11.7 °C 49 % 14 km/h (22 km/h) 0 mm0 mm 5 min 218.6 W/m²
12:42 23.1 °C 12.1 °C 50 % 13 km/h (23 km/h) 0 mm0 mm 5 min 213.4 W/m²
12:36 22.8 °C 13 °C 54 % 14 km/h (23 km/h) 0 mm0 mm 5 min 208.9 W/m²
12:30 22.7 °C 12.3 °C 52 % 14 km/h (21 km/h) 0 mm0 mm 6 min 256.1 W/m²
12:24 22.2 °C 12.4 °C 54 % 13 km/h (21 km/h) 0 mm0 mm 6 min 259.8 W/m²
12:18 21.5 °C 12.1 °C 55 % 13 km/h (18 km/h) 0 mm0 mm 4 min 198.9 W/m²
12:12 21.1 °C 12 °C 56 % 14 km/h (20 km/h) 0 mm0 mm 0 min 152 W/m²
12:06 20.7 °C 11.9 °C 57 % 15 km/h (21 km/h) 0 mm0 mm 0 min 105.4 W/m²
12:00 20.4 °C 11.3 °C 56 % 14 km/h (21 km/h) 0 mm0 mm 0 min 95.6 W/m²
11:54 20.7 °C 12.4 °C 59 % 12 km/h (21 km/h) 0 mm0 mm 0 min 114.2 W/m²
11:48 20.3 °C 12.3 °C 60 % 12 km/h (16 km/h) 0 mm0 mm 0 min 109.2 W/m²
11:42 20.2 °C 12.7 °C 62 % 12 km/h (19 km/h) 0 mm0 mm 0 min 93.2 W/m²
11:36 19.9 °C 11.6 °C 59 % 13 km/h (20 km/h) 0 mm0 mm 0 min 58.4 W/m²
11:30 20 °C 11.7 °C 59 % 13 km/h (20 km/h) 0 mm0 mm 0 min 79.2 W/m²
11:24 20 °C 11.7 °C 59 % 13 km/h (20 km/h) 0 mm0 mm 0 min 102.3 W/m²
11:18 19.9 °C 11.6 °C 59 % 14 km/h (20 km/h) 0 mm0 mm 0 min 82.4 W/m²
11:12 20.1 °C 11.8 °C 59 % 13 km/h (19 km/h) 0 mm0 mm 0 min 87.1 W/m²
11:06 20.7 °C 12.4 °C 59 % 13 km/h (19 km/h) 0 mm0 mm 5 min 191.4 W/m²
11:00 19.7 °C 12.2 °C 62 % 13 km/h (21 km/h) 0 mm0 mm 2 min 113.3 W/m²
10:54 20 °C 12.2 °C 61 % 14 km/h (21 km/h) 0 mm0 mm 4 min 162.8 W/m²
10:48 19.6 °C 12.1 °C 62 % 14 km/h (21 km/h) 0 mm0 mm 6 min 182.7 W/m²
10:42 19.1 °C 12.4 °C 65 % 13 km/h (19 km/h) 0 mm0 mm 5 min 159.2 W/m²
10:36 18.8 °C 11.8 °C 64 % 13 km/h (19 km/h) 0 mm0 mm 6 min 165.2 W/m²
10:30 18.6 °C 12.1 °C 66 % 13 km/h (19 km/h) 0 mm0 mm 6 min 159.4 W/m²
10:24 18.1 °C 12.1 °C 68 % 13 km/h (19 km/h) 0 mm0 mm 6 min 152.4 W/m²
10:18 17.8 °C 11.6 °C 67 % 13 km/h (19 km/h) 0 mm0 mm 6 min 144.6 W/m²
10:12 17.7 °C 12.6 °C 72 % 13 km/h (19 km/h) 0 mm0 mm 6 min 138.1 W/m²
10:06 17.4 °C 12.5 °C 73 % 13 km/h (20 km/h) 0 mm0 mm 6 min 124.4 W/m²
10:00 16.8 °C 11.7 °C 72 % 13 km/h (20 km/h) 0 mm0 mm 6 min 117.4 W/m²
09:54 16.4 °C 11.8 °C 74 % 13 km/h (20 km/h) 0 mm0 mm 6 min 99.2 W/m²
09:48 16.3 °C 12.1 °C 76 % 13 km/h (19 km/h) 0 mm0 mm 6 min 108.7 W/m²
09:42 16 °C 12 °C 77 % 11 km/h (16 km/h) 0 mm0 mm 6 min 111.5 W/m²
09:36 15.6 °C 12 °C 79 % 11 km/h (16 km/h) 0 mm0 mm 6 min 104.9 W/m²
09:30 15.3 °C 11.7 °C 79 % 11 km/h (16 km/h) 0 mm0 mm 6 min 92.6 W/m²
09:24 15.1 °C 12.2 °C 83 % 11 km/h (18 km/h) 0 mm0 mm 6 min 92.1 W/m²
09:18 14.7 °C 11.7 °C 82 % 11 km/h (18 km/h) 0 mm0 mm 6 min 85.9 W/m²
09:12 14.4 °C 11.5 °C 83 % 10 km/h (15 km/h) 0 mm0 mm 6 min 79.9 W/m²
09:06 14.1 °C 11.6 °C 85 % 9 km/h (13 km/h) 0 mm0 mm 6 min 73.9 W/m²
09:00 13.9 °C 11.8 °C 87 % 9 km/h (13 km/h) 0 mm0 mm 6 min 68 W/m²
08:54 13.5 °C 11.4 °C 87 % 9 km/h (13 km/h) 0 mm0 mm 6 min 62.6 W/m²
08:48 13.2 °C 11.3 °C 88 % 9 km/h (13 km/h) 0 mm0 mm 6 min 56.7 W/m²
08:42 13.1 °C 11.3 °C 89 % 8 km/h (11 km/h) 0 mm0 mm 6 min 50.5 W/m²
08:36 12.9 °C 11.3 °C 90 % 7 km/h (11 km/h) 0 mm0 mm 6 min 44.8 W/m²
08:30 12.7 °C 11.4 °C 92 % 7 km/h (11 km/h) 0 mm0 mm 6 min 39.1 W/m²
08:24 12.4 °C 11.1 °C 92 % 6 km/h (10 km/h) 0 mm0 mm 6 min 36.2 W/m²
08:18 12.1 °C 11.2 °C 94 % 5 km/h (8 km/h) 0 mm0 mm 6 min 31.3 W/m²
08:12 11.8 °C 11.3 °C 97 % 5 km/h (7 km/h) 0 mm0 mm 6 min 24.8 W/m²
08:06 11.5 °C 11.2 °C 98 % 5 km/h (7 km/h) 0 mm0 mm 6 min 19.6 W/m²
08:00 11 °C 10.8 °C 99 % 5 km/h (7 km/h) 0 mm0 mm 6 min 15.6 W/m²
07:54 10.6 °C 10.4 °C 99 % 6 km/h (8 km/h) 0 mm0 mm 2 min 8.6 W/m²
07:48 10.4 °C 10.2 °C 99 % 6 km/h (8 km/h) 0 mm0 mm 4 min 7.8 W/m²
07:42 10.3 °C 10.1 °C 99 % 6 km/h (8 km/h) 0 mm0 mm 0 min 2.1 W/m²
07:36 10.2 °C 10 °C 99 % 5 km/h (8 km/h) 0 mm0 mm 0 min 0 W/m²
07:30 10.2 °C 10 °C 99 % 4 km/h (5 km/h) 0 mm0 mm 0 min 0 W/m²
07:24 10.2 °C 10 °C 99 % 4 km/h (5 km/h) 0 mm0 mm 0 min 0 W/m²
07:18 10.3 °C 10.1 °C 99 % 5 km/h (6 km/h) 0 mm0 mm 0 min 0 W/m²
07:12 10.3 °C 10.1 °C 99 % 5 km/h (6 km/h) 0 mm0 mm 0 min 0 W/m²
07:06 10.4 °C 10.2 °C 99 % 5 km/h (6 km/h) 0 mm0 mm 0 min 0 W/m²
07:00 10.4 °C 10.2 °C 99 % 5 km/h (6 km/h) 0 mm0 mm 0 min 0 W/m²
06:54 10.6 °C 10.4 °C 99 % 5 km/h (6 km/h) 0 mm0 mm 0 min 0 W/m²
06:48 10.5 °C 10.3 °C 99 % 5 km/h (6 km/h) 0 mm0 mm 0 min 0 W/m²
06:42 10.4 °C 10.2 °C 99 % 5 km/h (7 km/h) 0 mm0 mm 0 min 0 W/m²
06:36 10.3 °C 10 °C 98 % 6 km/h (8 km/h) 0 mm0 mm 0 min 0 W/m²
06:30 10.5 °C 10.3 °C 99 % 6 km/h (8 km/h) 0 mm0 mm 0 min 0 W/m²
06:24 10.5 °C 10.3 °C 99 % 6 km/h (7 km/h) 0 mm0 mm 0 min 0 W/m²
06:18 10.5 °C 10.2 °C 98 % 6 km/h (7 km/h) 0 mm0 mm 0 min 0 W/m²
06:12 10.7 °C 10.4 °C 98 % 5 km/h (7 km/h) 0 mm0 mm 0 min 0 W/m²
06:06 10.7 °C 10.2 °C 97 % 6 km/h (7 km/h) 0 mm0 mm 0 min 0 W/m²
06:00 10.8 °C 10.3 °C 97 % 6 km/h (7 km/h) 0 mm0 mm 0 min 0 W/m²
05:54 11 °C 10.7 °C 98 % 6 km/h (8 km/h) 0 mm0 mm 0 min 0 W/m²
05:48 11 °C 10.8 °C 99 % 6 km/h (7 km/h) 0 mm0 mm 0 min 0 W/m²
05:42 10.8 °C 10.5 °C 98 % 6 km/h (7 km/h) 0 mm0 mm 0 min 0 W/m²
05:36 10.9 °C 10.6 °C 98 % 6 km/h (7 km/h) 0 mm0 mm 0 min 0 W/m²
05:30 10.8 °C 10.5 °C 98 % 5 km/h (6 km/h) 0 mm0 mm 0 min 0 W/m²
05:24 10.7 °C 10.2 °C 97 % 5 km/h (6 km/h) 0 mm0 mm 0 min 0 W/m²
05:18 10.8 °C 10.3 °C 97 % 5 km/h (7 km/h) 0 mm0 mm 0 min 0 W/m²
05:12 10.9 °C 10.4 °C 97 % 6 km/h (7 km/h) 0 mm0 mm 0 min 0 W/m²
05:06 10.9 °C 10.4 °C 97 % 6 km/h (8 km/h) 0 mm0 mm 0 min 0 W/m²
05:00 10.9 °C 10.4 °C 97 % 6 km/h (8 km/h) 0 mm0 mm 0 min 0 W/m²
04:54 10.9 °C 10.4 °C 97 % 6 km/h (8 km/h) 0 mm0 mm 0 min 0 W/m²
04:48 11 °C 10.7 °C 98 % 6 km/h (8 km/h) 0 mm0 mm 0 min 0 W/m²
04:42 10.9 °C 10.6 °C 98 % 5 km/h (7 km/h) 0 mm0 mm 0 min 0 W/m²
04:36 10.9 °C 10.6 °C 98 % 5 km/h (6 km/h) 0 mm0 mm 0 min 0 W/m²
04:30 10.9 °C 10.6 °C 98 % 6 km/h (8 km/h) 0 mm0 mm 0 min 0 W/m²
04:24 10.9 °C 10.6 °C 98 % 6 km/h (8 km/h) 0 mm0 mm 0 min 0 W/m²
04:18 10.9 °C 10.6 °C 98 % 5 km/h (7 km/h) 0 mm0 mm 0 min 0 W/m²
04:12 11 °C 10.7 °C 98 % 6 km/h (7 km/h) 0 mm0 mm 0 min 0 W/m²
04:06 11 °C 10.5 °C 97 % 6 km/h (7 km/h) 0 mm0 mm 0 min 0 W/m²
04:00 11.1 °C 10.8 °C 98 % 6 km/h (7 km/h) 0 mm0.4 mm 0 min 0 W/m²
03:54 11 °C 10.5 °C 97 % 5 km/h (6 km/h) 0 mm0 mm 0 min 0 W/m²
03:48 11 °C 10.4 °C 96 % 4 km/h (6 km/h) 0.3 mm0 mm 0 min 0 W/m²
03:42 11.1 °C 10.3 °C 95 % 5 km/h (6 km/h) 0.1 mm0 mm 0 min 0 W/m²
03:36 11.3 °C 10.4 °C 94 % 6 km/h (7 km/h) 0 mm0 mm 0 min 0 W/m²
03:30 11.7 °C 10.8 °C 94 % 5 km/h (7 km/h) 0 mm0 mm 0 min 0 W/m²
03:24 11.9 °C 11.1 °C 95 % 4 km/h (6 km/h) 0 mm0 mm 0 min 0 W/m²
03:18 11.9 °C 11 °C 94 % 3 km/h (5 km/h) 0 mm0 mm 0 min 0 W/m²
03:12 12 °C 10.9 °C 93 % 3 km/h (6 km/h) 0 mm0 mm 0 min 0 W/m²
03:06 12.2 °C 11.3 °C 94 % 3 km/h (6 km/h) 0 mm0 mm 0 min 0 W/m²
03:00 12.2 °C 11.3 °C 94 % 3 km/h (7 km/h) 0 mm0 mm 0 min 0 W/m²
02:54 12.3 °C 11.2 °C 93 % 6 km/h (9 km/h) 0 mm0 mm 0 min 0 W/m²
02:48 12.5 °C 11.4 °C 93 % 8 km/h (10 km/h) 0 mm0 mm 0 min 0 W/m²
02:42 12.6 °C 11.3 °C 92 % 8 km/h (10 km/h) 0 mm0 mm 0 min 0 W/m²
02:36 12.7 °C 11.6 °C 93 % 7 km/h (10 km/h) 0 mm0 mm 0 min 0 W/m²
02:30 12.7 °C 11.4 °C 92 % 6 km/h (10 km/h) 0 mm0 mm 0 min 0 W/m²
02:24 13 °C 11.9 °C 93 % 9 km/h (14 km/h) 0 mm0 mm 0 min 0 W/m²
02:18 12.7 °C 11.9 °C 95 % 10 km/h (14 km/h) 0 mm0 mm 0 min 0 W/m²
02:12 12.4 °C 11.8 °C 96 % 10 km/h (12 km/h) 0 mm0 mm 0 min 0 W/m²
02:06 12.1 °C 11.5 °C 96 % 10 km/h (14 km/h) 0 mm0 mm 0 min 0 W/m²
02:00 11.8 °C 10.9 °C 94 % 10 km/h (14 km/h) 0 mm0 mm 0 min 0 W/m²
01:54 11.9 °C 10.6 °C 92 % 8 km/h (11 km/h) 0 mm0 mm 0 min 0 W/m²
01:48 12.1 °C 11.2 °C 94 % 6 km/h (9 km/h) 0 mm0 mm 0 min 0 W/m²
01:42 12.2 °C 10.8 °C 91 % 7 km/h (9 km/h) 0 mm0 mm 0 min 0 W/m²
01:36 12.4 °C 10.8 °C 90 % 8 km/h (9 km/h) 0 mm0 mm 0 min 0 W/m²
01:30 12.6 °C 11.2 °C 91 % 8 km/h (9 km/h) 0 mm0 mm 0 min 0 W/m²
01:24 12.6 °C 11.3 °C 92 % 7 km/h (8 km/h) 0 mm0 mm 0 min 0 W/m²
01:18 12.3 °C 11.2 °C 93 % 6 km/h (8 km/h) 0 mm0 mm 0 min 0 W/m²
01:12 12.1 °C 11.2 °C 94 % 5 km/h (7 km/h) 0 mm0 mm 0 min 0 W/m²
01:06 11.9 °C 10.6 °C 92 % 4 km/h (6 km/h) 0 mm0 mm 0 min 0 W/m²
01:00 11.9 °C 10.5 °C 91 % 3 km/h (5 km/h) 0 mm0 mm 0 min 0 W/m²
00:54 12.1 °C 10.7 °C 91 % 3 km/h (4 km/h) 0 mm0 mm 0 min 0 W/m²
00:48 12.4 °C 11.1 °C 92 % 3 km/h (4 km/h) 0 mm0 mm 0 min 0 W/m²
00:42 12.6 °C 11.2 °C 91 % 3 km/h (4 km/h) 0 mm0 mm 0 min 0 W/m²
00:36 12.7 °C 10.8 °C 88 % 3 km/h (4 km/h) 0 mm0 mm 0 min 0 W/m²
00:30 12.8 °C 10.7 °C 87 % 3 km/h (4 km/h) 0 mm0 mm 0 min 0 W/m²
00:24 12.8 °C 10.9 °C 88 % 0 km/h (4 km/h) 0 mm0 mm 0 min 0 W/m²
00:18 12.8 °C 10.7 °C 87 % 0 km/h (3 km/h) 0 mm0 mm 0 min 0 W/m²
00:12 13 °C 10.5 °C 85 % 0 km/h (3 km/h) 0 mm0 mm 0 min 0 W/m²
00:06 13.1 °C 10.5 °C 84 % 2 km/h (5 km/h) 0 mm0 mm 0 min 0 W/m²
00:00 13.4 °C 10.4 °C 82 % 5 km/h (8 km/h) 0 mm0 mm 0 min 0 W/m²

Données via Météo-France

Relevés météo à Bernay

Cette page rassemble les observations de la station de Bernay : température, humidité, vent, précipitations et pression atmosphérique. Les graphiques facilitent le suivi de la journée, tandis que le tableau donne accès aux mesures horaires et infra-horaires disponibles.

Pour replacer ces mesures dans leur contexte, consultez la climatologie de Bernay ainsi que ses normales et records. Retrouvez aussi la carte des observations météo en temps réel.